createdAt,value
2023-05-22T00:00:44.794Z,525.00
2023-05-22T00:01:44.797Z,523.00
2023-05-22T00:02:44.937Z,523.00
2023-05-22T00:03:44.825Z,523.00
2023-05-22T00:04:44.842Z,522.00
2023-05-22T00:05:44.837Z,522.00
2023-05-22T00:06:44.858Z,521.00
2023-05-22T00:07:44.871Z,520.00
2023-05-22T00:08:44.961Z,521.00
2023-05-22T00:09:44.908Z,521.00
2023-05-22T00:10:44.920Z,524.00
2023-05-22T00:11:44.921Z,526.00
2023-05-22T00:12:45.040Z,524.00
2023-05-22T00:13:44.959Z,523.00
2023-05-22T00:14:44.978Z,524.00
2023-05-22T00:15:44.990Z,526.00
2023-05-22T00:16:45.005Z,522.00
2023-05-22T00:17:45.057Z,522.00
2023-05-22T00:18:45.063Z,521.00
2023-05-22T00:19:45.569Z,521.00
2023-05-22T00:20:45.117Z,523.00
2023-05-22T00:21:45.057Z,523.00
2023-05-22T00:22:45.087Z,520.00
2023-05-22T00:23:45.138Z,518.00
2023-05-22T00:24:45.105Z,518.00
2023-05-22T00:25:45.127Z,519.00
2023-05-22T00:26:45.148Z,519.00
2023-05-22T00:27:45.238Z,517.00
2023-05-22T00:28:45.184Z,517.00
2023-05-22T00:29:45.187Z,517.00
2023-05-22T00:30:45.207Z,520.00
2023-05-22T00:31:45.228Z,520.00
2023-05-22T00:32:45.313Z,517.00
2023-05-22T00:33:45.260Z,518.00
2023-05-22T00:34:45.326Z,520.00
2023-05-22T00:35:45.264Z,517.00
2023-05-22T00:36:45.273Z,517.00
2023-05-22T00:37:45.346Z,519.00
2023-05-22T00:38:45.305Z,522.00
2023-05-22T00:39:45.328Z,524.00
2023-05-22T00:40:45.332Z,523.00
2023-05-22T00:41:45.349Z,520.00
2023-05-22T00:42:45.407Z,520.00
2023-05-22T00:43:45.356Z,522.00
2023-05-22T00:44:45.365Z,522.00
2023-05-22T00:45:45.366Z,523.00
2023-05-22T00:46:45.438Z,523.00
2023-05-22T00:47:45.602Z,523.00
2023-05-22T00:48:45.406Z,521.00
2023-05-22T00:49:45.408Z,520.00
2023-05-22T00:50:45.419Z,520.00
2023-05-22T00:51:45.420Z,522.00
2023-05-22T00:52:45.431Z,520.00
2023-05-22T00:53:45.438Z,516.00
2023-05-22T00:54:45.442Z,517.00
2023-05-22T00:55:45.451Z,518.00
2023-05-22T00:56:45.461Z,518.00
2023-05-22T00:57:45.471Z,519.00
2023-05-22T00:58:45.466Z,522.00
2023-05-22T00:59:45.471Z,523.00
2023-05-22T01:00:45.541Z,522.00
2023-05-22T01:01:45.530Z,524.00
2023-05-22T01:02:45.679Z,526.00
2023-05-22T01:03:45.684Z,527.00
2023-05-22T01:04:45.494Z,524.00
2023-05-22T01:05:45.494Z,527.00
2023-05-22T01:06:45.513Z,526.00
2023-05-22T01:07:45.574Z,529.00
2023-05-22T01:08:45.521Z,528.00
2023-05-22T01:09:45.532Z,528.00
2023-05-22T01:10:45.554Z,527.00
2023-05-22T01:11:45.565Z,528.00
2023-05-22T01:12:45.571Z,528.00
2023-05-22T01:13:45.586Z,529.00
2023-05-22T01:14:45.589Z,528.00
2023-05-22T01:15:45.583Z,527.00
2023-05-22T01:16:45.661Z,526.00
2023-05-22T01:17:45.626Z,528.00
2023-05-22T01:18:45.635Z,530.00
2023-05-22T01:19:45.589Z,528.00
2023-05-22T01:20:47.727Z,530.00
2023-05-22T01:21:45.572Z,531.00
2023-05-22T01:22:45.573Z,533.00
2023-05-22T01:23:45.564Z,534.00
2023-05-22T01:24:45.561Z,532.00
2023-05-22T01:25:45.606Z,532.00
2023-05-22T01:26:45.555Z,531.00
2023-05-22T01:27:45.509Z,529.00
2023-05-22T01:28:45.555Z,525.00
2023-05-22T01:29:45.472Z,526.00
2023-05-22T01:30:45.468Z,525.00
2023-05-22T01:31:45.452Z,523.00
2023-05-22T01:32:45.667Z,523.00
2023-05-22T01:33:45.500Z,523.00
2023-05-22T01:34:45.412Z,525.00
2023-05-22T01:35:45.394Z,526.00
2023-05-22T01:36:45.378Z,525.00
2023-05-22T01:37:45.365Z,522.00
2023-05-22T01:38:45.345Z,521.00
2023-05-22T01:39:45.327Z,519.00
2023-05-22T01:40:45.318Z,520.00
2023-05-22T01:41:45.304Z,518.00
2023-05-22T01:42:45.333Z,517.00
2023-05-22T01:43:45.275Z,519.00
2023-05-22T01:44:45.254Z,522.00
2023-05-22T01:45:45.271Z,524.00
2023-05-22T01:46:45.311Z,523.00
2023-05-22T01:47:45.316Z,521.00
2023-05-22T01:48:45.198Z,523.00
2023-05-22T01:49:45.197Z,525.00
2023-05-22T01:50:46.095Z,524.00
2023-05-22T01:51:45.169Z,524.00
2023-05-22T01:52:45.147Z,525.00
2023-05-22T01:53:45.175Z,525.00
2023-05-22T01:54:45.122Z,524.00
2023-05-22T01:55:45.114Z,526.00
2023-05-22T01:56:45.103Z,525.00
2023-05-22T01:57:45.093Z,523.00
2023-05-22T01:58:45.083Z,522.00
2023-05-22T01:59:45.101Z,520.00
2023-05-22T02:00:45.065Z,520.00
2023-05-22T02:01:45.104Z,518.00
2023-05-22T02:02:45.656Z,517.00
2023-05-22T02:03:45.067Z,519.00
2023-05-22T02:04:45.057Z,520.00
2023-05-22T02:05:45.012Z,526.00
2023-05-22T02:06:44.985Z,529.00
2023-05-22T02:07:44.986Z,531.00
2023-05-22T02:08:44.968Z,531.00
2023-05-22T02:09:44.955Z,533.00
2023-05-22T02:10:44.946Z,531.00
2023-05-22T02:11:44.930Z,528.00
2023-05-22T02:12:45.016Z,527.00
2023-05-22T02:13:44.906Z,524.00
2023-05-22T02:14:44.897Z,525.00
2023-05-22T02:15:44.960Z,525.00
2023-05-22T02:16:44.875Z,526.00
2023-05-22T02:17:44.905Z,526.00
2023-05-22T02:18:44.944Z,526.00
2023-05-22T02:19:44.849Z,528.00
2023-05-22T02:20:44.843Z,526.00
2023-05-22T02:21:44.835Z,527.00
2023-05-22T02:22:44.907Z,526.00
2023-05-22T02:23:44.817Z,526.00
2023-05-22T02:24:44.848Z,524.00
2023-05-22T02:25:44.804Z,525.00
2023-05-22T02:26:44.793Z,522.00
2023-05-22T02:27:44.787Z,521.00
2023-05-22T02:28:44.776Z,522.00
2023-05-22T02:29:44.766Z,523.00
2023-05-22T02:30:44.759Z,523.00
2023-05-22T02:31:44.929Z,523.00
2023-05-22T02:32:44.785Z,522.00
2023-05-22T02:33:44.755Z,524.00
2023-05-22T02:34:44.728Z,524.00
2023-05-22T02:35:44.852Z,522.00
2023-05-22T02:36:44.708Z,519.00
2023-05-22T02:37:44.703Z,522.00
2023-05-22T02:38:44.694Z,522.00
2023-05-22T02:39:44.690Z,523.00
2023-05-22T02:40:44.677Z,526.00
2023-05-22T02:41:44.670Z,527.00
2023-05-22T02:42:44.666Z,526.00
2023-05-22T02:43:44.674Z,525.00
2023-05-22T02:44:44.632Z,523.00
2023-05-22T02:45:44.647Z,522.00
2023-05-22T02:46:44.678Z,523.00
2023-05-22T02:47:45.132Z,522.00
2023-05-22T02:48:44.615Z,523.00
2023-05-22T02:49:44.599Z,521.00
2023-05-22T02:50:44.606Z,522.00
2023-05-22T02:51:44.588Z,520.00
2023-05-22T02:52:44.605Z,518.00
2023-05-22T02:53:44.576Z,516.00
2023-05-22T02:54:44.576Z,515.00
2023-05-22T02:55:44.566Z,515.00
2023-05-22T02:56:44.563Z,518.00
2023-05-22T02:57:44.546Z,520.00
2023-05-22T02:58:44.554Z,523.00
2023-05-22T02:59:44.529Z,526.00
2023-05-22T03:00:44.511Z,523.00
2023-05-22T03:01:44.602Z,522.00
2023-05-22T03:02:44.633Z,521.00
2023-05-22T03:03:44.629Z,525.00
2023-05-22T03:04:44.444Z,525.00
2023-05-22T03:05:44.450Z,524.00
2023-05-22T03:06:51.961Z,525.00
2023-05-22T03:07:46.015Z,525.00
2023-05-22T03:08:44.473Z,525.00
2023-05-22T03:09:44.469Z,526.00
2023-05-22T03:10:44.445Z,526.00
2023-05-22T03:11:44.439Z,530.00
2023-05-22T03:12:44.419Z,529.00
2023-05-22T03:13:44.417Z,529.00
2023-05-22T03:14:44.393Z,530.00
2023-05-22T03:15:44.399Z,528.00
2023-05-22T03:16:44.556Z,527.00
2023-05-22T03:17:44.389Z,526.00
2023-05-22T03:18:44.430Z,525.00
2023-05-22T03:19:44.337Z,525.00
2023-05-22T03:20:44.319Z,524.00
2023-05-22T03:21:44.378Z,523.00
2023-05-22T03:22:44.310Z,525.00
2023-05-22T03:23:45.135Z,524.00
2023-05-22T03:24:44.293Z,525.00
2023-05-22T03:25:44.273Z,527.00
2023-05-22T03:26:44.256Z,528.00
2023-05-22T03:27:44.247Z,528.00
2023-05-22T03:28:44.266Z,530.00
2023-05-22T03:29:44.217Z,526.00
2023-05-22T03:30:44.232Z,526.00
2023-05-22T03:31:44.190Z,525.00
2023-05-22T03:32:44.244Z,524.00
2023-05-22T03:33:44.235Z,528.00
2023-05-22T03:34:44.144Z,527.00
2023-05-22T03:35:44.145Z,528.00
2023-05-22T03:36:44.144Z,530.00
2023-05-22T03:37:44.132Z,529.00
2023-05-22T03:38:44.129Z,529.00
2023-05-22T03:39:44.115Z,530.00
2023-05-22T03:40:44.114Z,531.00
2023-05-22T03:41:44.096Z,531.00
2023-05-22T03:42:44.093Z,529.00
2023-05-22T03:43:45.160Z,528.00
2023-05-22T03:44:44.070Z,528.00
2023-05-22T03:45:44.134Z,530.00
2023-05-22T03:46:44.055Z,532.00
2023-05-22T03:47:44.061Z,534.00
2023-05-22T03:48:44.036Z,535.00
2023-05-22T03:49:44.041Z,535.00
2023-05-22T03:50:44.010Z,535.00
2023-05-22T03:51:44.010Z,535.00
2023-05-22T03:52:44.011Z,534.00
2023-05-22T03:53:43.987Z,529.00
2023-05-22T03:54:43.971Z,533.00
2023-05-22T03:55:43.970Z,532.00
2023-05-22T03:56:43.965Z,530.00
2023-05-22T03:57:43.949Z,532.00
2023-05-22T03:58:43.941Z,528.00
2023-05-22T03:59:43.933Z,527.00
2023-05-22T04:00:43.930Z,528.00
2023-05-22T04:01:43.945Z,525.00
2023-05-22T04:02:44.005Z,524.00
2023-05-22T04:03:43.987Z,527.00
2023-05-22T04:04:43.924Z,526.00
2023-05-22T04:05:43.919Z,525.00
2023-05-22T04:06:43.954Z,528.00
2023-05-22T04:07:43.968Z,527.00
2023-05-22T04:08:43.989Z,526.00
2023-05-22T04:09:44.017Z,525.00
2023-05-22T04:10:44.039Z,528.00
2023-05-22T04:11:44.050Z,530.00
2023-05-22T04:12:44.074Z,529.00
2023-05-22T04:13:44.100Z,528.00
2023-05-22T04:14:44.127Z,530.00
2023-05-22T04:15:44.172Z,530.00
2023-05-22T04:16:44.163Z,530.00
2023-05-22T04:17:44.235Z,529.00
2023-05-22T04:18:44.253Z,531.00
2023-05-22T04:19:44.207Z,530.00
2023-05-22T04:20:44.225Z,532.00
2023-05-22T04:21:44.257Z,531.00
2023-05-22T04:22:44.271Z,530.00
2023-05-22T04:23:44.277Z,528.00
2023-05-22T04:24:44.295Z,526.00
2023-05-22T04:25:44.311Z,527.00
2023-05-22T04:26:44.321Z,526.00
2023-05-22T04:27:44.351Z,525.00
2023-05-22T04:28:44.371Z,525.00
2023-05-22T04:29:44.374Z,525.00
2023-05-22T04:30:44.395Z,529.00
2023-05-22T04:31:44.466Z,530.00
2023-05-22T04:32:44.502Z,529.00
2023-05-22T04:33:44.468Z,532.00
2023-05-22T04:34:44.486Z,533.00
2023-05-22T04:35:44.515Z,530.00
2023-05-22T04:36:44.526Z,529.00
2023-05-22T04:37:44.567Z,527.00
2023-05-22T04:38:44.576Z,528.00
2023-05-22T04:39:44.596Z,526.00
2023-05-22T04:40:44.618Z,526.00
2023-05-22T04:41:44.649Z,522.00
2023-05-22T04:42:44.730Z,520.00
2023-05-22T04:43:44.696Z,521.00
2023-05-22T04:44:44.704Z,523.00
2023-05-22T04:45:44.722Z,522.00
2023-05-22T04:46:44.808Z,523.00
2023-05-22T04:47:44.829Z,521.00
2023-05-22T04:48:44.786Z,522.00
2023-05-22T04:49:44.802Z,520.00
2023-05-22T04:50:44.818Z,522.00
2023-05-22T04:51:44.832Z,522.00
2023-05-22T04:52:44.854Z,523.00
2023-05-22T04:53:44.856Z,525.00
2023-05-22T04:54:44.882Z,525.00
2023-05-22T04:55:44.899Z,526.00
2023-05-22T04:56:44.913Z,526.00
2023-05-22T04:57:44.933Z,525.00
2023-05-22T04:58:44.964Z,523.00
2023-05-22T04:59:45.021Z,522.00
2023-05-22T05:00:45.029Z,525.00
2023-05-22T05:01:45.073Z,524.00
2023-05-22T05:02:45.104Z,523.00
2023-05-22T05:03:45.105Z,524.00
2023-05-22T05:04:45.082Z,523.00
2023-05-22T05:05:45.108Z,520.00
2023-05-22T05:06:45.118Z,521.00
2023-05-22T05:07:45.905Z,520.00
2023-05-22T05:08:45.345Z,517.00
2023-05-22T05:09:45.167Z,524.00
2023-05-22T05:10:45.182Z,525.00
2023-05-22T05:11:45.214Z,525.00
2023-05-22T05:12:45.248Z,525.00
2023-05-22T05:13:45.242Z,525.00
2023-05-22T05:14:45.273Z,525.00
2023-05-22T05:15:45.283Z,527.00
2023-05-22T05:16:45.317Z,529.00
2023-05-22T05:17:45.382Z,530.00
2023-05-22T05:18:45.365Z,527.00
2023-05-22T05:19:45.378Z,525.00
2023-05-22T05:20:45.395Z,524.00
2023-05-22T05:21:45.419Z,524.00
2023-05-22T05:22:45.472Z,524.00
2023-05-22T05:23:45.446Z,528.00
2023-05-22T05:24:45.528Z,529.00
2023-05-22T05:25:45.507Z,529.00
2023-05-22T05:26:45.493Z,530.00
2023-05-22T05:27:45.521Z,532.00
2023-05-22T05:28:45.541Z,529.00
2023-05-22T05:29:45.526Z,528.00
2023-05-22T05:30:45.546Z,526.00
2023-05-22T05:31:45.612Z,528.00
2023-05-22T05:32:45.617Z,533.00
2023-05-22T05:33:45.584Z,634.00
2023-05-22T05:34:45.602Z,678.00
2023-05-22T05:35:45.579Z,701.00
2023-05-22T05:36:45.561Z,730.00
2023-05-22T05:37:45.543Z,772.00
2023-05-22T05:38:45.530Z,822.00
2023-05-22T05:39:45.520Z,838.00
2023-05-22T05:40:45.595Z,858.00
2023-05-22T05:41:45.493Z,887.00
2023-05-22T05:42:45.477Z,921.00
2023-05-22T05:43:45.473Z,968.00
2023-05-22T05:44:45.454Z,995.00
2023-05-22T05:45:45.483Z,1035.00
2023-05-22T05:46:45.478Z,1058.00
2023-05-22T05:47:45.566Z,1073.00
2023-05-22T05:48:45.499Z,1105.00
2023-05-22T05:49:45.556Z,1142.00
2023-05-22T05:50:45.591Z,1179.00
2023-05-22T05:51:45.591Z,1213.00
2023-05-22T05:52:45.658Z,1236.00
2023-05-22T05:53:45.652Z,1255.00
2023-05-22T05:54:46.178Z,1280.00
2023-05-22T05:55:45.757Z,1321.00
2023-05-22T05:56:48.806Z,1340.00
2023-05-22T05:57:45.769Z,1361.00
2023-05-22T05:58:45.680Z,1390.00
2023-05-22T05:59:45.666Z,1415.00
2023-05-22T06:00:45.632Z,1449.00
2023-05-22T06:01:46.771Z,1473.00
2023-05-22T06:02:50.750Z,1546.00
2023-05-22T06:03:45.805Z,1570.00
2023-05-22T06:04:45.585Z,1588.00
2023-05-22T06:05:45.704Z,1607.00
2023-05-22T06:06:45.593Z,1640.00
2023-05-22T06:07:45.690Z,1668.00
2023-05-22T06:08:45.616Z,1694.00
2023-05-22T06:09:46.575Z,1728.00
2023-05-22T06:10:45.538Z,1758.00
2023-05-22T06:11:45.522Z,1796.00
2023-05-22T06:12:45.509Z,1840.00
2023-05-22T06:13:45.463Z,1860.00
2023-05-22T06:14:45.422Z,1882.00
2023-05-22T06:15:45.468Z,1911.00
2023-05-22T06:16:45.388Z,1937.00
2023-05-22T06:17:45.359Z,1966.00
2023-05-22T06:18:45.398Z,1992.00
2023-05-22T06:19:45.265Z,2023.00
2023-05-22T06:20:45.231Z,2050.00
2023-05-22T06:21:45.199Z,2082.00
2023-05-22T06:22:45.165Z,2122.00
2023-05-22T06:23:45.130Z,2139.00
2023-05-22T06:24:45.103Z,2122.00
2023-05-22T06:25:45.083Z,2144.00
2023-05-22T06:26:45.067Z,2149.00
2023-05-22T06:27:45.020Z,2146.00
2023-05-22T06:28:45.005Z,2148.00
2023-05-22T06:29:44.958Z,2152.00
2023-05-22T06:30:45.169Z,2157.00
2023-05-22T06:31:45.051Z,2161.00
2023-05-22T06:32:45.159Z,2160.00
2023-05-22T06:33:45.114Z,2160.00
2023-05-22T06:34:45.072Z,2156.00
2023-05-22T06:35:45.091Z,2152.00
2023-05-22T06:36:45.117Z,2148.00
2023-05-22T06:37:45.135Z,2142.00
2023-05-22T06:38:45.161Z,2136.00
2023-05-22T06:39:45.183Z,2136.00
2023-05-22T06:40:45.512Z,2131.00
2023-05-22T06:41:45.233Z,2130.00
2023-05-22T06:42:45.260Z,2132.00
2023-05-22T06:43:45.277Z,2135.00
2023-05-22T06:44:45.338Z,2130.00
2023-05-22T06:45:45.396Z,2129.00
2023-05-22T06:46:45.357Z,2131.00
2023-05-22T06:47:45.420Z,2130.00
2023-05-22T06:48:45.411Z,2126.00
2023-05-22T06:49:45.445Z,2120.00
2023-05-22T06:50:45.468Z,2119.00
2023-05-22T06:51:45.493Z,2122.00
2023-05-22T06:52:45.529Z,2119.00
2023-05-22T06:53:45.562Z,2113.00
2023-05-22T06:54:45.602Z,2105.00
2023-05-22T06:55:45.631Z,2100.00
2023-05-22T06:56:45.656Z,2098.00
2023-05-22T06:57:45.688Z,2094.00
2023-05-22T06:58:45.708Z,2092.00
2023-05-22T06:59:45.731Z,2094.00
2023-05-22T07:00:45.755Z,2094.00
2023-05-22T07:01:45.823Z,2094.00
2023-05-22T07:02:45.843Z,2092.00
2023-05-22T07:03:45.868Z,2089.00
2023-05-22T07:04:45.892Z,2087.00
2023-05-22T07:05:45.926Z,2086.00
2023-05-22T07:06:45.966Z,2088.00
2023-05-22T07:07:45.991Z,2091.00
2023-05-22T07:08:45.946Z,2086.00
2023-05-22T07:09:45.919Z,2087.00
2023-05-22T07:10:46.644Z,2082.00
2023-05-22T07:11:45.859Z,2084.00
2023-05-22T07:12:45.834Z,2086.00
2023-05-22T07:13:45.807Z,2089.00
2023-05-22T07:14:45.783Z,2091.00
2023-05-22T07:15:46.744Z,2087.00
2023-05-22T07:16:45.761Z,2085.00
2023-05-22T07:17:45.784Z,2083.00
2023-05-22T07:18:45.774Z,2073.00
2023-05-22T07:19:45.786Z,2067.00
2023-05-22T07:20:45.822Z,2064.00
2023-05-22T07:21:45.875Z,2061.00
2023-05-22T07:22:45.898Z,2063.00
2023-05-22T07:23:45.923Z,2060.00
2023-05-22T07:24:45.915Z,2060.00
2023-05-22T07:25:45.939Z,2055.00
2023-05-22T07:26:45.993Z,2056.00
2023-05-22T07:27:47.047Z,2052.00
2023-05-22T07:28:46.655Z,2049.00
2023-05-22T07:29:46.086Z,2052.00
2023-05-22T07:30:46.128Z,2046.00
2023-05-22T07:31:46.202Z,2044.00
2023-05-22T07:32:46.187Z,2044.00
2023-05-22T07:33:46.221Z,2040.00
2023-05-22T07:34:46.246Z,2036.00
2023-05-22T07:35:46.306Z,2032.00
2023-05-22T07:36:46.317Z,2033.00
2023-05-22T07:37:46.345Z,2034.00
2023-05-22T07:38:46.374Z,2032.00
2023-05-22T07:39:46.413Z,2031.00
2023-05-22T07:40:46.420Z,2025.00
2023-05-22T07:41:46.472Z,2017.00
2023-05-22T07:42:46.512Z,2014.00
2023-05-22T07:43:46.543Z,2016.00
2023-05-22T07:44:46.566Z,2020.00
2023-05-22T07:45:46.618Z,2021.00
2023-05-22T07:46:46.655Z,2022.00
2023-05-22T07:47:46.762Z,2022.00
2023-05-22T07:48:46.737Z,2026.00
2023-05-22T07:49:46.749Z,2027.00
2023-05-22T07:50:46.807Z,2027.00
2023-05-22T07:51:46.861Z,2022.00
2023-05-22T07:52:46.867Z,2018.00
2023-05-22T07:53:46.902Z,2017.00
2023-05-22T07:54:46.914Z,2020.00
2023-05-22T07:55:46.975Z,2022.00
2023-05-22T07:56:46.984Z,2018.00
2023-05-22T07:57:47.065Z,2015.00
2023-05-22T07:58:47.031Z,2015.00
2023-05-22T07:59:47.077Z,2014.00
2023-05-22T08:00:47.085Z,2015.00
2023-05-22T08:01:47.099Z,2012.00
2023-05-22T08:02:47.187Z,2006.00
2023-05-22T08:03:47.301Z,2003.00
2023-05-22T08:04:47.165Z,2005.00
2023-05-22T08:05:47.229Z,2007.00
2023-05-22T08:06:47.203Z,2007.00
2023-05-22T08:07:47.143Z,2002.00
2023-05-22T08:08:47.152Z,2000.00
2023-05-22T08:09:47.156Z,2005.00
2023-05-22T08:11:02.441Z,2003.00
2023-05-22T08:11:48.145Z,2003.00
2023-05-22T08:12:47.128Z,2002.00
2023-05-22T08:13:47.095Z,1998.00
2023-05-22T08:14:47.070Z,1994.00
2023-05-22T08:15:47.046Z,1989.00
2023-05-22T08:16:47.087Z,1983.00
2023-05-22T08:17:47.049Z,1985.00
2023-05-22T08:18:47.283Z,1990.00
2023-05-22T08:19:47.057Z,1992.00
2023-05-22T08:20:46.958Z,1991.00
2023-05-22T08:21:46.945Z,1995.00
2023-05-22T08:22:46.909Z,1989.00
2023-05-22T08:23:46.899Z,1983.00
2023-05-22T08:24:46.860Z,1976.00
2023-05-22T08:25:46.833Z,1972.00
2023-05-22T08:26:46.815Z,1974.00
2023-05-22T08:27:46.825Z,1972.00
2023-05-22T08:28:46.795Z,1973.00
2023-05-22T08:29:46.790Z,1974.00
2023-05-22T08:30:46.781Z,1972.00
2023-05-22T08:31:46.871Z,1971.00
2023-05-22T08:32:46.776Z,1965.00
2023-05-22T08:33:46.774Z,1965.00
2023-05-22T08:34:46.741Z,1965.00
2023-05-22T08:35:46.712Z,1967.00
2023-05-22T08:36:46.788Z,1962.00
2023-05-22T08:37:46.687Z,1959.00
2023-05-22T08:38:46.663Z,1957.00
2023-05-22T08:39:46.667Z,1957.00
2023-05-22T08:40:46.820Z,1956.00
2023-05-22T08:41:46.635Z,1954.00
2023-05-22T08:42:46.633Z,1951.00
2023-05-22T08:43:46.646Z,1946.00
2023-05-22T08:44:46.639Z,1945.00
2023-05-22T08:45:46.654Z,1941.00
2023-05-22T08:46:46.697Z,1941.00
2023-05-22T08:47:46.705Z,1939.00
2023-05-22T08:48:46.673Z,1937.00
2023-05-22T08:49:46.660Z,1935.00
2023-05-22T08:50:46.662Z,1932.00
2023-05-22T08:51:46.674Z,1930.00
2023-05-22T08:52:46.679Z,1926.00
2023-05-22T08:53:46.686Z,1922.00
2023-05-22T08:54:46.666Z,1921.00
2023-05-22T08:55:46.689Z,1926.00
2023-05-22T08:56:56.322Z,1929.00
2023-05-22T08:57:47.650Z,1930.00
2023-05-22T08:58:46.635Z,1931.00
2023-05-22T08:59:46.615Z,1929.00
2023-05-22T09:00:46.641Z,1929.00
2023-05-22T09:01:46.609Z,1928.00
2023-05-22T09:02:46.608Z,1921.00
2023-05-22T09:03:46.614Z,1915.00
2023-05-22T09:04:46.504Z,1918.00
2023-05-22T09:05:46.468Z,1920.00
2023-05-22T09:06:46.431Z,1912.00
2023-05-22T09:08:46.397Z,1903.00
2023-05-22T09:09:46.363Z,1900.00
2023-05-22T09:10:46.347Z,1893.00
2023-05-22T09:11:46.328Z,1889.00
2023-05-22T09:12:46.306Z,1889.00
2023-05-22T09:13:46.289Z,1891.00
2023-05-22T09:14:46.261Z,1893.00
2023-05-22T09:15:46.249Z,1891.00
2023-05-22T09:16:46.276Z,1889.00
2023-05-22T09:17:46.236Z,1887.00
2023-05-22T09:18:46.243Z,1885.00
2023-05-22T09:19:46.294Z,1879.00
2023-05-22T09:20:46.145Z,1872.00
2023-05-22T09:21:46.326Z,1874.00
2023-05-22T09:22:46.154Z,1874.00
2023-05-22T09:23:46.157Z,1873.00
2023-05-22T09:24:46.195Z,1870.00
2023-05-22T09:25:46.138Z,1869.00
2023-05-22T09:26:46.133Z,1866.00
2023-05-22T09:27:46.117Z,1864.00
2023-05-22T09:28:46.129Z,1861.00
2023-05-22T09:29:46.102Z,1857.00
2023-05-22T09:30:46.160Z,1855.00
2023-05-22T09:31:46.261Z,1856.00
2023-05-22T09:32:46.106Z,1863.00
2023-05-22T09:33:46.063Z,1862.00
2023-05-22T09:34:46.068Z,1862.00
2023-05-22T09:35:46.063Z,1861.00
2023-05-22T09:36:46.047Z,1859.00
2023-05-22T09:37:46.039Z,1855.00
2023-05-22T09:38:46.065Z,1854.00
2023-05-22T09:39:46.082Z,1855.00
2023-05-22T09:40:46.094Z,1858.00
2023-05-22T09:41:46.127Z,1853.00
2023-05-22T09:42:46.142Z,1855.00
2023-05-22T09:43:46.139Z,1852.00
2023-05-22T09:44:46.145Z,1851.00
2023-05-22T09:45:46.151Z,1850.00
2023-05-22T09:46:46.266Z,1848.00
2023-05-22T09:47:46.203Z,1847.00
2023-05-22T09:48:46.185Z,1846.00
2023-05-22T09:49:46.211Z,1848.00
2023-05-22T09:50:46.228Z,1845.00
2023-05-22T09:51:46.227Z,1853.00
2023-05-22T09:52:53.725Z,1851.00
2023-05-22T09:53:46.234Z,1845.00
2023-05-22T09:54:46.224Z,1844.00
2023-05-22T09:55:46.205Z,1839.00
2023-05-22T09:56:46.184Z,1837.00
2023-05-22T09:57:46.172Z,1839.00
2023-05-22T09:58:46.154Z,1837.00
2023-05-22T09:59:46.134Z,1836.00
2023-05-22T10:00:46.119Z,1832.00
2023-05-22T10:01:46.143Z,1831.00
2023-05-22T10:02:46.127Z,1831.00
2023-05-22T10:03:48.655Z,1832.00
2023-05-22T10:04:46.104Z,1830.00
2023-05-22T10:05:46.033Z,1831.00
2023-05-22T10:06:46.032Z,1830.00
2023-05-22T10:07:46.015Z,1829.00
2023-05-22T10:08:45.985Z,1827.00
2023-05-22T10:09:45.965Z,1826.00
2023-05-22T10:10:45.943Z,1822.00
2023-05-22T10:11:45.926Z,1819.00
2023-05-22T10:12:45.989Z,1819.00
2023-05-22T10:13:45.880Z,1815.00
2023-05-22T10:14:45.875Z,1809.00
2023-05-22T10:15:45.961Z,1805.00
2023-05-22T10:16:45.819Z,1807.00
2023-05-22T10:17:45.819Z,1803.00
2023-05-22T10:18:45.788Z,1801.00
2023-05-22T10:19:46.885Z,1804.00
2023-05-22T10:20:45.711Z,1805.00
2023-05-22T10:21:45.691Z,1802.00
2023-05-22T10:22:45.664Z,1798.00
2023-05-22T10:23:45.641Z,1796.00
2023-05-22T10:24:45.606Z,1793.00
2023-05-22T10:25:45.612Z,1794.00
2023-05-22T10:26:45.553Z,1791.00
2023-05-22T10:27:45.545Z,1790.00
2023-05-22T10:28:45.689Z,1789.00
2023-05-22T10:29:45.506Z,1788.00
2023-05-22T10:30:45.472Z,1790.00
2023-05-22T10:31:45.444Z,1787.00
2023-05-22T10:32:45.418Z,1786.00
2023-05-22T10:33:45.403Z,1780.00
2023-05-22T10:34:45.358Z,1786.00
2023-05-22T10:35:45.339Z,1784.00
2023-05-22T10:36:47.092Z,1780.00
2023-05-22T10:37:45.281Z,1781.00
2023-05-22T10:38:45.260Z,1784.00
2023-05-22T10:39:45.224Z,1783.00
2023-05-22T10:40:45.410Z,1780.00
2023-05-22T10:41:45.177Z,1778.00
2023-05-22T10:42:45.173Z,1775.00
2023-05-22T10:43:45.152Z,1774.00
2023-05-22T10:44:45.205Z,1775.00
2023-05-22T10:45:45.642Z,1771.00
2023-05-22T10:46:45.070Z,1772.00
2023-05-22T10:47:45.073Z,1771.00
2023-05-22T10:48:45.040Z,1769.00
2023-05-22T10:49:45.057Z,1767.00
2023-05-22T10:50:44.997Z,1765.00
2023-05-22T10:51:44.977Z,1765.00
2023-05-22T10:52:44.956Z,1763.00
2023-05-22T10:53:44.930Z,1760.00
2023-05-22T10:54:44.921Z,1759.00
2023-05-22T10:55:44.905Z,1754.00
2023-05-22T10:56:44.870Z,1753.00
2023-05-22T10:57:44.848Z,1748.00
2023-05-22T10:58:44.835Z,1746.00
2023-05-22T10:59:44.836Z,1742.00
2023-05-22T11:00:44.887Z,1739.00
2023-05-22T11:01:44.793Z,1740.00
2023-05-22T11:02:44.904Z,1738.00
2023-05-22T11:03:44.788Z,1734.00
2023-05-22T11:04:44.778Z,1734.00
2023-05-22T11:05:44.695Z,1733.00
2023-05-22T11:06:45.236Z,1736.00
2023-05-22T11:07:44.653Z,1736.00
2023-05-22T11:08:44.628Z,1735.00
2023-05-22T11:09:44.606Z,1732.00
2023-05-22T11:10:44.586Z,1730.00
2023-05-22T11:11:44.569Z,1730.00
2023-05-22T11:12:44.567Z,1727.00
2023-05-22T11:13:44.526Z,1728.00
2023-05-22T11:14:44.517Z,1728.00
2023-05-22T11:15:44.500Z,1728.00
2023-05-22T11:16:44.649Z,1727.00
2023-05-22T11:17:44.531Z,1726.00
2023-05-22T11:18:45.861Z,1729.00
2023-05-22T11:19:44.732Z,1724.00
2023-05-22T11:20:44.693Z,1720.00
2023-05-22T11:21:44.737Z,1718.00
2023-05-22T11:22:44.733Z,1716.00
2023-05-22T11:23:44.761Z,1714.00
2023-05-22T11:24:44.789Z,1715.00
2023-05-22T11:25:44.794Z,1711.00
2023-05-22T11:26:44.831Z,1709.00
2023-05-22T11:27:44.850Z,1706.00
2023-05-22T11:28:44.869Z,1699.00
2023-05-22T11:29:44.889Z,1697.00
2023-05-22T11:30:44.929Z,1697.00
2023-05-22T11:31:44.963Z,1696.00
2023-05-22T11:32:45.422Z,1696.00
2023-05-22T11:33:45.045Z,1691.00
2023-05-22T11:34:45.070Z,1690.00
2023-05-22T11:35:45.149Z,1687.00
2023-05-22T11:36:45.144Z,1688.00
2023-05-22T11:37:45.174Z,1689.00
2023-05-22T11:38:45.206Z,1685.00
2023-05-22T11:39:45.293Z,1683.00
2023-05-22T11:40:45.290Z,1684.00
2023-05-22T11:41:45.331Z,1685.00
2023-05-22T11:42:45.394Z,1684.00
2023-05-22T11:43:45.442Z,1681.00
2023-05-22T11:44:45.445Z,1676.00
2023-05-22T11:45:45.497Z,1678.00
2023-05-22T11:46:45.714Z,1679.00
2023-05-22T11:47:45.617Z,1681.00
2023-05-22T11:48:45.706Z,1678.00
2023-05-22T11:49:45.660Z,1675.00
2023-05-22T11:50:46.020Z,1673.00
2023-05-22T11:51:45.713Z,1671.00
2023-05-22T11:52:45.744Z,1669.00
2023-05-22T11:53:45.773Z,1669.00
2023-05-22T11:54:45.801Z,1666.00
2023-05-22T11:55:45.830Z,1665.00
2023-05-22T11:56:45.851Z,1663.00
2023-05-22T11:57:45.907Z,1663.00
2023-05-22T11:58:45.961Z,1665.00
2023-05-22T11:59:45.985Z,1667.00
2023-05-22T12:00:46.048Z,1666.00
2023-05-22T12:01:46.022Z,1665.00
2023-05-22T12:02:46.129Z,1662.00
2023-05-22T12:03:46.257Z,1663.00
2023-05-22T12:04:46.177Z,1664.00
2023-05-22T12:05:46.119Z,1662.00
2023-05-22T12:06:46.176Z,1659.00
2023-05-22T12:07:46.188Z,1657.00
2023-05-22T12:08:46.197Z,1658.00
2023-05-22T12:09:46.208Z,1660.00
2023-05-22T12:10:46.222Z,1658.00
2023-05-22T12:11:46.253Z,1659.00
2023-05-22T12:12:46.239Z,1660.00
2023-05-22T12:13:46.269Z,1658.00
2023-05-22T12:14:46.278Z,1657.00
2023-05-22T12:15:46.302Z,1652.00
2023-05-22T12:16:46.405Z,1651.00
2023-05-22T12:17:46.393Z,1650.00